createdAt,value
2023-02-11T00:01:34.444Z,109.25
2023-02-11T00:04:03.133Z,91.38
2023-02-11T00:06:32.245Z,91.20
2023-02-11T00:09:00.449Z,92.20
2023-02-11T00:11:31.626Z,99.93
2023-02-11T00:14:02.337Z,115.57
2023-02-11T00:16:30.913Z,110.97
2023-02-11T00:19:02.932Z,109.72
2023-02-11T00:21:30.423Z,101.25
2023-02-11T00:24:00.162Z,104.00
2023-02-11T00:26:30.866Z,92.90
2023-02-11T00:28:58.473Z,91.88
2023-02-11T00:31:26.226Z,89.15
2023-02-11T00:33:54.323Z,92.68
2023-02-11T00:36:24.716Z,98.90
2023-02-11T00:38:54.484Z,103.65
2023-02-11T00:41:22.366Z,110.10
2023-02-11T00:43:50.472Z,103.35
2023-02-11T00:46:19.553Z,115.38
2023-02-11T00:48:47.440Z,111.75
2023-02-11T00:51:14.761Z,112.72
2023-02-11T00:53:42.380Z,102.93
2023-02-11T00:56:10.144Z,89.13
2023-02-11T00:58:37.634Z,90.10
2023-02-11T01:01:05.296Z,87.45
2023-02-11T01:03:34.757Z,82.45
2023-02-11T01:06:02.277Z,89.32
2023-02-11T01:08:29.870Z,89.80
2023-02-11T01:11:03.177Z,85.00
2023-02-11T01:13:31.875Z,85.35
2023-02-11T01:15:59.318Z,90.75
2023-02-11T01:18:27.165Z,90.28
2023-02-11T01:20:55.123Z,84.22
2023-02-11T01:23:24.291Z,87.18
2023-02-11T01:25:52.477Z,90.70
2023-02-11T01:28:25.784Z,95.38
2023-02-11T01:30:54.089Z,93.10
2023-02-11T01:33:23.033Z,98.88
2023-02-11T01:35:50.994Z,93.25
2023-02-11T01:38:24.699Z,95.53
2023-02-11T01:40:55.683Z,91.63
2023-02-11T01:43:25.325Z,94.70
2023-02-11T01:46:00.466Z,94.22
2023-02-11T01:48:36.574Z,91.53
2023-02-11T01:53:53.847Z,84.82
2023-02-11T01:56:41.091Z,73.43
2023-02-11T01:59:15.489Z,75.15
2023-02-11T02:01:48.688Z,78.63
2023-02-11T02:04:19.477Z,79.65
2023-02-11T02:06:59.831Z,79.53
2023-02-11T02:09:33.400Z,77.32
2023-02-11T02:12:00.684Z,99.63
2023-02-11T02:14:29.127Z,84.97
2023-02-11T02:16:56.441Z,89.90
2023-02-11T02:19:50.478Z,82.63
2023-02-11T02:22:42.536Z,72.68
2023-02-11T02:25:36.302Z,82.93
2023-02-11T02:28:45.681Z,80.97
2023-02-11T02:32:10.501Z,93.68
2023-02-11T02:35:12.600Z,77.45
2023-02-11T02:37:48.998Z,74.45
2023-02-11T02:40:21.644Z,75.32
2023-02-11T02:42:51.149Z,75.60
2023-02-11T02:45:19.540Z,87.63
2023-02-11T02:47:47.093Z,88.25
2023-02-11T02:50:17.203Z,74.07
2023-02-11T02:52:57.339Z,77.53
2023-02-11T02:56:09.155Z,72.30
2023-02-11T02:58:39.181Z,73.60
2023-02-11T03:01:33.039Z,94.40
2023-02-11T03:04:08.052Z,96.57
2023-02-11T03:06:52.230Z,84.93
2023-02-11T03:09:27.610Z,82.82
2023-02-11T03:11:54.991Z,85.90
2023-02-11T03:14:27.009Z,76.90
2023-02-11T03:16:57.745Z,73.93
2023-02-11T03:19:31.390Z,81.28
2023-02-11T03:21:58.563Z,73.60
2023-02-11T03:24:37.237Z,77.03
2023-02-11T03:27:12.690Z,74.47
2023-02-11T03:32:23.340Z,72.35
2023-02-11T03:35:01.670Z,73.53
2023-02-11T03:37:37.855Z,74.07
2023-02-11T03:40:10.635Z,71.88
2023-02-11T03:42:46.295Z,65.43
2023-02-11T03:45:19.006Z,67.60
2023-02-11T03:47:53.952Z,76.05
2023-02-11T03:50:23.355Z,77.50
2023-02-11T03:52:51.689Z,80.47
2023-02-11T03:55:21.691Z,85.88
2023-02-11T03:57:49.065Z,76.70
2023-02-11T04:00:16.667Z,80.65
2023-02-11T04:02:44.465Z,68.10
2023-02-11T04:05:15.678Z,88.60
2023-02-11T04:07:42.960Z,90.47
2023-02-11T04:10:12.594Z,96.32
2023-02-11T04:12:39.854Z,101.30
2023-02-11T04:15:08.025Z,103.90
2023-02-11T04:17:35.486Z,76.82
2023-02-11T04:20:03.642Z,88.38
2023-02-11T04:22:31.118Z,86.47
2023-02-11T04:24:58.665Z,79.82
2023-02-11T04:27:25.937Z,61.58
2023-02-11T04:29:54.327Z,62.15
2023-02-11T04:32:21.493Z,68.47
2023-02-11T04:34:49.023Z,68.78
2023-02-11T04:37:16.376Z,69.53
2023-02-11T04:39:43.838Z,57.70
2023-02-11T04:42:11.124Z,58.63
2023-02-11T04:44:38.942Z,52.22
2023-02-11T04:47:06.109Z,55.28
2023-02-11T04:49:33.607Z,54.85
2023-02-11T04:52:00.837Z,49.28
2023-02-11T04:54:28.296Z,50.97
2023-02-11T04:56:55.451Z,55.95
2023-02-11T04:59:22.944Z,65.97
2023-02-11T05:01:50.262Z,65.55
2023-02-11T05:04:18.210Z,59.13
2023-02-11T05:06:45.421Z,57.20
2023-02-11T05:09:13.421Z,55.97
2023-02-11T05:11:40.662Z,62.20
2023-02-11T05:14:08.248Z,56.47
2023-02-11T05:16:35.429Z,59.85
2023-02-11T05:19:03.109Z,54.10
2023-02-11T05:21:30.468Z,52.70
2023-02-11T05:23:58.276Z,49.05
2023-02-11T05:26:25.860Z,49.15
2023-02-11T05:28:53.384Z,53.25
2023-02-11T05:31:20.701Z,52.05
2023-02-11T05:33:48.184Z,51.38
2023-02-11T05:36:16.190Z,57.75
2023-02-11T05:38:43.945Z,57.00
2023-02-11T05:41:11.522Z,63.85
2023-02-11T05:43:39.055Z,56.97
2023-02-11T05:46:06.865Z,55.92
2023-02-11T05:48:35.226Z,55.72
2023-02-11T05:51:02.385Z,51.22
2023-02-11T05:53:29.893Z,57.90
2023-02-11T05:55:57.657Z,55.38
2023-02-11T05:58:25.147Z,56.20
2023-02-11T06:00:52.320Z,67.15
2023-02-11T06:03:19.831Z,65.07
2023-02-11T06:05:47.167Z,64.70
2023-02-11T06:08:14.621Z,68.78
2023-02-11T06:10:45.121Z,60.50
2023-02-11T06:13:12.841Z,83.38
2023-02-11T06:15:40.127Z,80.53
2023-02-11T06:18:07.650Z,70.18
2023-02-11T06:20:35.021Z,71.18
2023-02-11T06:23:02.568Z,72.03
2023-02-11T06:25:29.735Z,74.32
2023-02-11T06:27:57.379Z,69.07
2023-02-11T06:30:24.544Z,76.38
2023-02-11T06:32:52.180Z,77.50
2023-02-11T06:35:19.433Z,75.68
2023-02-11T06:37:48.144Z,74.50
2023-02-11T06:40:15.791Z,71.07
2023-02-11T06:42:43.265Z,77.65
2023-02-11T06:45:11.253Z,75.13
2023-02-11T06:47:40.463Z,80.70
2023-02-11T06:50:11.491Z,83.88
2023-02-11T06:52:39.108Z,75.35
2023-02-11T06:55:07.690Z,109.95
2023-02-11T06:57:35.252Z,103.90
2023-02-11T07:00:02.872Z,109.50
2023-02-11T07:02:30.178Z,104.53
2023-02-11T07:04:57.705Z,105.15
2023-02-11T07:07:25.009Z,113.30
2023-02-11T07:09:52.824Z,121.90
2023-02-11T07:12:20.104Z,110.53
2023-02-11T07:14:47.727Z,96.95
2023-02-11T07:17:15.059Z,93.60
2023-02-11T07:19:42.681Z,91.78
2023-02-11T07:22:09.894Z,90.20
2023-02-11T07:24:37.475Z,103.25
2023-02-11T07:27:04.803Z,103.22
2023-02-11T07:29:33.250Z,109.63
2023-02-11T07:32:00.497Z,112.30
2023-02-11T07:34:28.209Z,133.25
2023-02-11T07:36:55.349Z,141.73
2023-02-11T07:39:23.009Z,148.00
2023-02-11T07:41:50.181Z,149.55
2023-02-11T07:44:18.937Z,95.82
2023-02-11T07:46:46.498Z,167.25
2023-02-11T07:49:14.081Z,188.70
2023-02-11T07:51:41.375Z,177.40
2023-02-11T07:54:10.379Z,181.98
2023-02-11T07:56:37.555Z,158.07
2023-02-11T07:59:05.228Z,157.55
2023-02-11T08:01:32.760Z,125.30
2023-02-11T08:04:02.086Z,117.90
2023-02-11T08:06:31.695Z,133.25
2023-02-11T08:09:05.334Z,125.88
2023-02-11T08:11:33.135Z,120.72
2023-02-11T08:14:00.786Z,115.72
2023-02-11T08:16:31.012Z,112.75
2023-02-11T08:19:02.900Z,109.47
2023-02-11T08:21:30.777Z,116.18
2023-02-11T08:23:58.913Z,129.32
2023-02-11T08:26:29.233Z,128.30
2023-02-11T08:28:57.739Z,114.60
2023-02-11T08:31:28.579Z,136.60
2023-02-11T08:33:58.370Z,101.90
2023-02-11T08:36:29.320Z,84.35
2023-02-11T08:39:15.901Z,58.63
2023-02-11T08:41:46.010Z,32.80
2023-02-11T08:44:13.839Z,21.95
2023-02-11T08:46:41.050Z,16.65
2023-02-11T08:49:08.600Z,17.35
2023-02-11T08:51:37.180Z,15.52
2023-02-11T08:54:06.356Z,14.57
2023-02-11T08:56:34.034Z,15.13
2023-02-11T08:59:01.778Z,16.60
2023-02-11T09:01:31.268Z,15.75
2023-02-11T09:03:59.656Z,16.27
2023-02-11T09:06:27.936Z,14.63
2023-02-11T09:08:57.663Z,12.73
2023-02-11T09:11:32.190Z,13.80
2023-02-11T09:14:01.203Z,13.45
2023-02-11T09:16:31.962Z,12.73
2023-02-11T09:19:01.265Z,12.30
2023-02-11T09:21:29.447Z,11.50
2023-02-11T09:23:59.878Z,13.25
2023-02-11T09:26:30.292Z,12.25
2023-02-11T09:28:58.295Z,10.75
2023-02-11T09:31:27.501Z,12.63
2023-02-11T09:33:58.310Z,11.38
2023-02-11T09:36:31.864Z,12.00
2023-02-11T09:39:01.357Z,11.40
2023-02-11T09:41:58.952Z,12.60
2023-02-11T09:44:33.410Z,12.45
2023-02-11T09:47:31.803Z,14.20
2023-02-11T09:50:04.865Z,14.38
2023-02-11T09:52:56.116Z,13.88
2023-02-11T09:55:28.341Z,13.65
2023-02-11T09:57:57.352Z,13.45
2023-02-11T10:00:35.263Z,15.43
2023-02-11T10:03:39.120Z,14.57
2023-02-11T10:06:20.333Z,15.10
2023-02-11T10:08:59.938Z,16.00
2023-02-11T10:11:37.040Z,17.40
2023-02-11T10:14:16.101Z,17.92
2023-02-11T10:16:59.084Z,18.08
2023-02-11T10:19:32.223Z,16.42
2023-02-11T10:22:24.198Z,15.30
2023-02-11T10:25:00.350Z,15.55
2023-02-11T10:27:32.268Z,15.60
2023-02-11T10:30:06.250Z,17.48
2023-02-11T10:32:34.121Z,15.02
2023-02-11T10:35:10.661Z,15.40
2023-02-11T10:37:38.451Z,16.00
2023-02-11T10:40:12.850Z,15.82
2023-02-11T10:42:44.652Z,14.23
2023-02-11T10:45:22.407Z,14.88
2023-02-11T10:47:50.128Z,12.52
2023-02-11T10:50:29.605Z,13.13
2023-02-11T10:53:12.397Z,13.48
2023-02-11T10:55:55.916Z,14.25
2023-02-11T10:58:45.436Z,14.30
2023-02-11T11:01:24.469Z,13.80
2023-02-11T11:03:53.371Z,14.48
2023-02-11T11:06:33.155Z,14.70
2023-02-11T11:09:01.418Z,13.60
2023-02-11T11:11:28.691Z,14.50
2023-02-11T11:14:01.268Z,16.00
2023-02-11T11:16:33.683Z,13.77
2023-02-11T11:19:06.919Z,16.50
2023-02-11T11:21:45.910Z,14.70
2023-02-11T11:24:33.755Z,15.68
2023-02-11T11:27:04.426Z,16.42
2023-02-11T11:29:39.550Z,16.30
2023-02-11T11:32:15.410Z,17.25
2023-02-11T11:37:22.914Z,16.52
2023-02-11T11:41:35.381Z,16.33
2023-02-11T11:44:35.094Z,16.92
2023-02-11T11:47:11.157Z,15.98
2023-02-11T11:49:45.609Z,15.48
2023-02-11T11:52:31.213Z,16.73
2023-02-11T11:55:19.721Z,15.93
2023-02-11T11:57:46.880Z,16.75
2023-02-11T12:00:32.609Z,15.68
2023-02-11T12:03:18.925Z,16.05
2023-02-11T12:05:51.969Z,16.92
2023-02-11T12:08:34.027Z,15.10
2023-02-11T12:11:12.455Z,15.00
2023-02-11T12:13:57.507Z,14.50
2023-02-11T12:16:36.397Z,12.73
2023-02-11T12:19:11.629Z,13.35
2023-02-11T12:21:42.064Z,14.20
2023-02-11T12:24:47.774Z,13.13
2023-02-11T12:27:47.470Z,13.93
2023-02-11T12:30:20.503Z,13.73
2023-02-11T12:32:50.554Z,14.77
2023-02-11T12:35:20.831Z,14.63
2023-02-11T12:38:08.536Z,14.23
2023-02-11T12:40:35.986Z,14.43
2023-02-11T12:43:18.490Z,17.33
2023-02-11T12:46:05.259Z,17.50
2023-02-11T12:48:38.889Z,17.95
2023-02-11T12:51:14.713Z,19.10
2023-02-11T12:56:16.928Z,18.40
2023-02-11T12:58:45.793Z,17.65
2023-02-11T13:01:30.958Z,18.38
2023-02-11T13:04:17.473Z,22.73
2023-02-11T13:06:53.845Z,18.15
2023-02-11T13:09:26.995Z,20.75
2023-02-11T13:11:55.683Z,18.77
2023-02-11T13:14:41.557Z,18.63
2023-02-11T13:17:17.564Z,19.00
2023-02-11T13:19:49.503Z,16.95
2023-02-11T13:22:19.565Z,18.30
2023-02-11T13:24:49.618Z,18.45
2023-02-11T13:27:29.210Z,18.20
2023-02-11T13:30:01.251Z,17.17
2023-02-11T13:32:50.356Z,17.65
2023-02-11T13:35:28.537Z,17.52
2023-02-11T13:37:56.238Z,16.65
2023-02-11T13:40:41.918Z,17.63
2023-02-11T13:43:25.754Z,22.52
2023-02-11T13:45:57.789Z,21.30
2023-02-11T13:48:26.778Z,21.65
2023-02-11T13:50:59.383Z,22.35
2023-02-11T13:53:27.784Z,20.23
2023-02-11T13:56:07.965Z,24.23
2023-02-11T13:58:47.148Z,23.63
2023-02-11T14:01:34.803Z,33.67
2023-02-11T14:04:39.319Z,24.25
2023-02-11T14:07:45.430Z,26.45
2023-02-11T14:10:34.898Z,18.67
2023-02-11T14:13:25.926Z,36.13
2023-02-11T14:16:05.599Z,24.45
2023-02-11T14:18:37.136Z,21.02
2023-02-11T14:21:12.191Z,31.05
2023-02-11T14:23:40.598Z,29.23
2023-02-11T14:26:25.493Z,26.88
2023-02-11T14:28:57.065Z,23.05
2023-02-11T14:31:26.934Z,33.88
2023-02-11T14:34:13.154Z,52.08
2023-02-11T14:36:53.328Z,31.10
2023-02-11T14:39:20.793Z,48.88
2023-02-11T14:41:49.176Z,35.63
2023-02-11T14:44:19.622Z,24.35
2023-02-11T14:46:48.156Z,20.98
2023-02-11T14:49:25.730Z,19.95
2023-02-11T14:51:54.679Z,17.30
2023-02-11T14:54:25.422Z,18.15
2023-02-11T14:57:11.526Z,16.08
2023-02-11T15:02:28.362Z,14.02
2023-02-11T15:05:13.559Z,17.08
2023-02-11T15:07:43.978Z,15.60
2023-02-11T15:10:17.756Z,17.58
2023-02-11T15:12:48.241Z,16.00
2023-02-11T15:15:16.259Z,18.15
2023-02-11T15:17:46.308Z,18.42
2023-02-11T15:20:18.950Z,21.88
2023-02-11T15:22:47.347Z,20.38
2023-02-11T15:25:18.489Z,18.48
2023-02-11T15:27:50.325Z,16.77
2023-02-11T15:30:24.582Z,21.52
2023-02-11T15:33:00.182Z,20.77
2023-02-11T15:37:57.149Z,28.73
2023-02-11T15:40:28.142Z,37.70
2023-02-11T15:43:00.020Z,44.42
2023-02-11T15:45:38.900Z,35.55
2023-02-11T15:48:08.152Z,25.55
2023-02-11T15:50:37.431Z,25.40
2023-02-11T15:53:20.057Z,24.92
2023-02-11T15:55:49.009Z,22.08
2023-02-11T15:58:16.152Z,21.88
2023-02-11T16:00:51.831Z,24.02
2023-02-11T16:03:20.668Z,23.50
2023-02-11T16:05:48.135Z,22.17
2023-02-11T16:08:26.396Z,21.48
2023-02-11T16:10:58.874Z,21.48
2023-02-11T16:13:28.523Z,19.90
2023-02-11T16:16:04.205Z,21.27
2023-02-11T16:18:38.180Z,19.80
2023-02-11T16:21:12.660Z,18.73
2023-02-11T16:23:42.403Z,20.17
2023-02-11T16:26:20.802Z,21.55
2023-02-11T16:28:48.754Z,20.40
2023-02-11T16:31:17.408Z,21.08
2023-02-11T16:33:44.700Z,22.55
2023-02-11T16:36:13.653Z,22.85
2023-02-11T16:38:41.014Z,20.85
2023-02-11T16:41:11.931Z,22.90
2023-02-11T16:43:39.897Z,22.50
2023-02-11T16:46:07.445Z,22.50
2023-02-11T16:48:35.194Z,23.48
2023-02-11T16:51:03.682Z,21.15
2023-02-11T16:53:31.755Z,22.65
2023-02-11T16:55:59.901Z,22.98
2023-02-11T16:58:28.232Z,24.90
2023-02-11T17:00:57.324Z,23.15
2023-02-11T17:03:27.489Z,27.30
2023-02-11T17:05:57.214Z,26.98
2023-02-11T17:08:24.266Z,29.92
2023-02-11T17:10:52.064Z,29.17
2023-02-11T17:13:19.311Z,28.42
2023-02-11T17:15:46.823Z,27.13
2023-02-11T17:18:14.697Z,25.70
2023-02-11T17:20:42.258Z,33.00
2023-02-11T17:23:09.542Z,26.98
2023-02-11T17:25:37.611Z,30.65
2023-02-11T17:28:08.832Z,28.45
2023-02-11T17:30:36.465Z,29.20
2023-02-11T17:33:03.628Z,31.25
2023-02-11T17:35:31.234Z,32.65
2023-02-11T17:37:59.400Z,29.58
2023-02-11T17:40:27.267Z,31.27
2023-02-11T17:42:54.384Z,32.70
2023-02-11T17:45:22.452Z,32.35
2023-02-11T17:47:49.945Z,29.90
2023-02-11T17:50:17.522Z,34.95
2023-02-11T17:52:48.063Z,32.53
2023-02-11T17:55:15.889Z,28.30
2023-02-11T17:57:43.091Z,29.40
2023-02-11T18:00:11.121Z,31.98
2023-02-11T18:02:41.265Z,38.38
2023-02-11T18:05:08.784Z,32.38
2023-02-11T18:07:35.948Z,35.35
2023-02-11T18:10:05.492Z,30.45
2023-02-11T18:12:32.677Z,34.40
2023-02-11T18:15:00.142Z,32.97
2023-02-11T18:17:27.320Z,31.00
2023-02-11T18:19:57.685Z,28.55
2023-02-11T18:22:25.380Z,35.40
2023-02-11T18:24:53.506Z,33.60
2023-02-11T18:27:22.414Z,30.90
2023-02-11T18:29:49.804Z,29.17
2023-02-11T18:32:16.956Z,30.75
2023-02-11T18:34:44.398Z,27.80
2023-02-11T18:37:13.517Z,30.25
2023-02-11T18:39:41.210Z,33.20
2023-02-11T18:42:08.866Z,32.13
2023-02-11T18:44:36.576Z,38.13
2023-02-11T18:47:03.759Z,33.53
2023-02-11T18:49:31.226Z,37.55
2023-02-11T18:51:58.998Z,34.92
2023-02-11T18:54:26.460Z,31.73
2023-02-11T18:56:53.611Z,30.10
2023-02-11T18:59:21.012Z,41.72
2023-02-11T19:01:48.144Z,31.38
2023-02-11T19:04:20.134Z,33.08
2023-02-11T19:06:49.228Z,34.65
2023-02-11T19:09:18.470Z,29.60
2023-02-11T19:11:49.124Z,29.95
2023-02-11T19:14:21.699Z,34.38
2023-02-11T19:16:50.900Z,31.50
2023-02-11T19:19:18.961Z,28.73
2023-02-11T19:21:46.605Z,28.25
2023-02-11T19:24:16.322Z,28.73
2023-02-11T19:26:43.470Z,27.90
2023-02-11T19:29:10.995Z,29.17
2023-02-11T19:31:38.661Z,29.25
2023-02-11T19:34:07.594Z,33.10
2023-02-11T19:36:34.841Z,31.15
2023-02-11T19:39:02.799Z,27.60
2023-02-11T19:41:30.896Z,28.75
2023-02-11T19:43:58.324Z,29.05
2023-02-11T19:46:26.963Z,27.88
2023-02-11T19:48:54.705Z,29.90
2023-02-11T19:51:22.301Z,29.25
2023-02-11T19:53:51.160Z,30.60
2023-02-11T19:56:20.460Z,30.80
2023-02-11T19:58:48.277Z,30.17
2023-02-11T20:01:16.862Z,32.28
2023-02-11T20:03:44.555Z,33.25
2023-02-11T20:06:15.934Z,32.85
2023-02-11T20:08:45.149Z,31.65
2023-02-11T20:11:14.706Z,32.92
2023-02-11T20:13:42.545Z,33.10
2023-02-11T20:16:12.639Z,31.98
2023-02-11T20:18:40.637Z,28.73
2023-02-11T20:21:08.533Z,30.70
2023-02-11T20:23:36.276Z,32.22
2023-02-11T20:26:07.287Z,32.65
2023-02-11T20:28:35.302Z,33.22
2023-02-11T20:31:03.163Z,37.53
2023-02-11T20:33:31.437Z,31.98
2023-02-11T20:35:59.696Z,33.55
2023-02-11T20:38:27.318Z,37.88
2023-02-11T20:40:55.157Z,36.58
2023-02-11T20:43:23.130Z,31.60
2023-02-11T20:45:50.557Z,29.45
2023-02-11T20:48:18.211Z,30.25
2023-02-11T20:50:48.305Z,32.42
2023-02-11T20:53:15.916Z,34.83
2023-02-11T20:55:43.085Z,31.55
2023-02-11T20:58:10.580Z,34.22
2023-02-11T21:00:37.656Z,33.95
2023-02-11T21:03:05.193Z,32.20
2023-02-11T21:05:32.570Z,29.10
2023-02-11T21:08:00.132Z,27.40
2023-02-11T21:10:27.599Z,23.77
2023-02-11T21:12:55.212Z,24.80
2023-02-11T21:15:24.292Z,25.48
2023-02-11T21:17:51.708Z,28.95
2023-02-11T21:20:19.184Z,28.98
2023-02-11T21:22:46.644Z,28.58
2023-02-11T21:25:13.671Z,31.75
2023-02-11T21:27:41.201Z,36.13
2023-02-11T21:30:08.717Z,36.00
2023-02-11T21:32:36.169Z,34.85
2023-02-11T21:35:03.258Z,29.50
2023-02-11T21:37:30.680Z,26.23
2023-02-11T21:40:00.560Z,33.85
2023-02-11T21:42:28.103Z,26.90
2023-02-11T21:44:55.241Z,24.88
2023-02-11T21:47:22.831Z,26.50
2023-02-11T21:49:50.093Z,24.52
2023-02-11T21:52:17.522Z,28.10
2023-02-11T21:54:44.684Z,28.25
2023-02-11T21:57:12.086Z,25.13
2023-02-11T21:59:39.312Z,25.20
2023-02-11T22:02:06.900Z,25.90
2023-02-11T22:04:34.240Z,31.48
2023-02-11T22:07:03.167Z,30.15
2023-02-11T22:09:30.218Z,30.58
2023-02-11T22:11:57.833Z,28.73
2023-02-11T22:14:25.047Z,29.10
2023-02-11T22:16:52.477Z,27.25
2023-02-11T22:19:19.578Z,28.80
2023-02-11T22:21:47.903Z,29.85
2023-02-11T22:24:15.160Z,27.35
2023-02-11T22:26:42.705Z,24.13
2023-02-11T22:29:10.773Z,25.13
2023-02-11T22:31:38.660Z,25.23
2023-02-11T22:34:06.003Z,24.92
2023-02-11T22:36:34.997Z,23.98
2023-02-11T22:39:06.317Z,21.48
2023-02-11T22:41:33.913Z,22.38
2023-02-11T22:44:01.109Z,24.58
2023-02-11T22:46:28.620Z,19.88
2023-02-11T22:48:55.748Z,20.27
2023-02-11T22:51:24.863Z,21.67
2023-02-11T22:53:51.978Z,19.67
2023-02-11T22:56:19.558Z,20.52
2023-02-11T22:58:46.864Z,21.02
2023-02-11T23:01:14.604Z,21.40
2023-02-11T23:03:42.090Z,18.17
2023-02-11T23:06:11.975Z,19.27
2023-02-11T23:08:39.909Z,20.88
2023-02-11T23:11:08.914Z,21.48
2023-02-11T23:13:37.006Z,19.83
2023-02-11T23:16:05.428Z,19.42
2023-02-11T23:18:32.676Z,19.25
2023-02-11T23:21:04.873Z,18.90
2023-02-11T23:23:32.031Z,18.40
2023-02-11T23:25:59.841Z,19.90
2023-02-11T23:28:27.173Z,20.15
2023-02-11T23:30:54.981Z,22.30
2023-02-11T23:33:22.411Z,17.70
2023-02-11T23:35:49.780Z,17.00
2023-02-11T23:38:16.873Z,18.02
2023-02-11T23:40:44.196Z,19.23
2023-02-11T23:43:11.361Z,19.80
2023-02-11T23:45:38.709Z,20.35
2023-02-11T23:48:05.788Z,19.70
2023-02-11T23:50:34.011Z,16.17
2023-02-11T23:53:01.044Z,19.27
2023-02-11T23:55:28.358Z,18.88
2023-02-11T23:57:55.424Z,19.67
